createdAt,value
2022-08-02T00:01:14.477Z,98481.22
2022-08-02T00:02:18.385Z,98486.03
2022-08-02T00:03:24.432Z,98493.13
2022-08-02T00:04:28.364Z,98483.59
2022-08-02T00:05:32.901Z,98485.59
2022-08-02T00:06:38.398Z,98480.31
2022-08-02T00:07:43.568Z,98475.03
2022-08-02T00:08:49.619Z,98481.94
2022-08-02T00:09:54.303Z,98477.69
2022-08-02T00:10:58.266Z,98476.00
2022-08-02T00:12:02.729Z,98481.28
2022-08-02T00:14:52.993Z,98478.38
2022-08-02T00:15:56.653Z,98474.09
2022-08-02T00:17:01.221Z,98482.03
2022-08-02T00:18:04.852Z,98477.75
2022-08-02T00:19:09.309Z,98482.22
2022-08-02T00:20:13.152Z,98480.59
2022-08-02T00:21:18.717Z,98480.13
2022-08-02T00:22:24.220Z,98483.75
2022-08-02T00:23:28.892Z,98482.13
2022-08-02T00:24:32.558Z,98476.97
2022-08-02T00:25:37.192Z,98476.84
2022-08-02T00:27:00.038Z,98481.63
2022-08-02T00:28:04.618Z,98478.31
2022-08-02T00:29:08.398Z,98476.69
2022-08-02T00:30:14.018Z,98482.97
2022-08-02T00:31:18.575Z,98480.53
2022-08-02T00:32:24.370Z,98482.50
2022-08-02T00:34:27.735Z,98477.59
2022-08-02T00:34:52.896Z,98485.88
2022-08-02T00:35:56.736Z,98492.34
2022-08-02T00:37:03.841Z,98490.06
2022-08-02T00:38:09.014Z,98489.59
2022-08-02T00:39:35.299Z,98499.50
2022-08-02T00:40:38.434Z,98492.50
2022-08-02T00:41:46.933Z,98495.69
2022-08-02T00:43:04.541Z,98492.91
2022-08-02T00:44:08.320Z,98497.72
2022-08-02T00:45:13.187Z,98501.72
2022-08-02T00:46:17.416Z,98501.25
2022-08-02T00:47:23.117Z,98498.78
2022-08-02T00:48:26.765Z,98503.44
2022-08-02T00:49:32.929Z,98508.72
2022-08-02T00:50:40.933Z,98504.41
2022-08-02T00:51:45.682Z,98507.03
2022-08-02T00:52:49.893Z,98508.53
2022-08-02T00:53:57.561Z,98503.69
2022-08-02T00:55:01.310Z,98501.72
2022-08-02T00:56:06.630Z,98506.00
2022-08-02T00:57:10.463Z,98510.28
2022-08-02T00:58:15.430Z,98506.47
2022-08-02T00:59:27.681Z,98501.47
2022-08-02T01:00:34.316Z,98507.22
2022-08-02T01:01:56.261Z,98501.59
2022-08-02T01:03:02.293Z,98506.53
2022-08-02T01:04:06.743Z,98501.06
2022-08-02T01:05:11.753Z,98508.78
2022-08-02T01:06:15.073Z,98509.44
2022-08-02T01:07:20.119Z,98513.34
2022-08-02T01:08:29.395Z,98510.38
2022-08-02T01:09:38.302Z,98506.19
2022-08-02T01:10:42.335Z,98507.47
2022-08-02T01:11:47.070Z,98507.94
2022-08-02T01:12:50.883Z,98509.19
2022-08-02T01:13:55.774Z,98512.50
2022-08-02T01:15:01.653Z,98512.00
2022-08-02T01:16:11.600Z,98510.78
2022-08-02T01:17:22.890Z,98518.19
2022-08-02T01:18:32.285Z,98517.03
2022-08-02T01:19:40.762Z,98521.09
2022-08-02T01:21:29.668Z,98518.13
2022-08-02T01:23:02.086Z,98525.84
2022-08-02T01:24:21.463Z,98521.56
2022-08-02T01:25:54.770Z,98519.56
2022-08-02T01:27:07.318Z,98519.56
2022-08-02T01:28:30.494Z,98514.09
2022-08-02T01:29:37.002Z,98525.84
2022-08-02T01:30:42.241Z,98518.94
2022-08-02T01:31:52.513Z,98513.66
2022-08-02T01:32:59.820Z,98506.88
2022-08-02T01:34:08.211Z,98514.00
2022-08-02T01:35:15.652Z,98508.72
2022-08-02T01:36:20.951Z,98514.81
2022-08-02T01:37:28.525Z,98521.72
2022-08-02T01:38:35.693Z,98518.13
2022-08-02T01:39:42.565Z,98520.56
2022-08-02T01:40:46.341Z,98519.56
2022-08-02T01:41:51.902Z,98527.13
2022-08-02T01:43:01.834Z,98523.47
2022-08-02T01:44:12.813Z,98524.94
2022-08-02T01:45:17.066Z,98527.41
2022-08-02T01:46:22.472Z,98533.13
2022-08-02T01:47:30.844Z,98532.97
2022-08-02T01:48:37.040Z,98531.97
2022-08-02T01:49:41.011Z,98532.78
2022-08-02T01:50:46.540Z,98535.06
2022-08-02T01:52:11.567Z,98530.59
2022-08-02T01:53:17.734Z,98529.59
2022-08-02T01:56:58.353Z,98527.78
2022-08-02T01:58:05.151Z,98532.03
2022-08-02T01:59:21.006Z,98536.78
2022-08-02T02:00:27.743Z,98533.94
2022-08-02T02:01:34.286Z,98523.84
2022-08-02T02:02:42.083Z,98527.13
2022-08-02T02:03:48.191Z,98525.13
2022-08-02T02:04:53.064Z,98528.41
2022-08-02T02:05:59.136Z,98529.06
2022-08-02T02:07:03.580Z,98522.75
2022-08-02T02:08:09.462Z,98524.38
2022-08-02T02:09:13.962Z,98523.38
2022-08-02T02:10:21.392Z,98520.53
2022-08-02T02:12:09.399Z,98527.50
2022-08-02T02:12:52.218Z,98530.94
2022-08-02T02:13:56.578Z,98522.84
2022-08-02T02:15:04.330Z,98527.75
2022-08-02T02:16:08.352Z,98526.56
2022-08-02T02:17:57.216Z,98524.56
2022-08-02T02:18:41.007Z,98519.91
2022-08-02T02:19:48.841Z,98520.38
2022-08-02T02:20:52.632Z,98523.63
2022-08-02T02:21:57.446Z,98518.97
2022-08-02T02:23:01.086Z,98520.63
2022-08-02T02:24:09.090Z,98523.06
2022-08-02T02:25:34.286Z,98524.72
2022-08-02T02:26:52.116Z,98518.59
2022-08-02T02:28:00.965Z,98519.63
2022-08-02T02:29:06.548Z,98517.78
2022-08-02T02:30:12.871Z,98520.44
2022-08-02T02:31:19.622Z,98520.44
2022-08-02T02:32:23.722Z,98519.41
2022-08-02T02:33:29.561Z,98527.34
2022-08-02T02:35:01.726Z,98528.38
2022-08-02T02:36:26.113Z,98522.47
2022-08-02T02:37:33.074Z,98527.75
2022-08-02T02:38:37.478Z,98530.38
2022-08-02T02:39:42.416Z,98532.03
2022-08-02T02:40:47.511Z,98532.03
2022-08-02T02:41:53.546Z,98536.50
2022-08-02T02:42:59.252Z,98533.84
2022-08-02T02:44:04.191Z,98524.91
2022-08-02T02:45:10.295Z,98529.38
2022-08-02T02:46:17.343Z,98530.19
2022-08-02T02:47:20.942Z,98525.09
2022-08-02T02:48:26.968Z,98532.03
2022-08-02T02:49:58.739Z,98528.72
2022-08-02T02:51:06.174Z,98527.91
2022-08-02T02:54:30.250Z,98531.09
2022-08-02T02:56:02.085Z,98533.47
2022-08-02T02:57:24.131Z,98527.38
2022-08-02T02:58:31.696Z,98525.13
2022-08-02T02:59:45.364Z,98534.03
2022-08-02T03:01:11.870Z,98532.41
2022-08-02T03:02:18.112Z,98530.75
2022-08-02T03:03:22.292Z,98534.22
2022-08-02T03:04:55.162Z,98532.59
2022-08-02T03:05:54.714Z,98532.41
2022-08-02T03:07:31.174Z,98532.22
2022-08-02T03:08:35.054Z,98530.56
2022-08-02T03:09:41.651Z,98534.69
2022-08-02T03:10:45.698Z,98527.38
2022-08-02T03:11:50.585Z,98532.50
2022-08-02T03:12:58.445Z,98533.94
2022-08-02T03:14:04.537Z,98533.75
2022-08-02T03:15:09.771Z,98524.84
2022-08-02T03:16:14.963Z,98528.91
2022-08-02T03:17:20.486Z,98529.53
2022-08-02T03:18:36.659Z,98525.09
2022-08-02T03:19:41.602Z,98529.53
2022-08-02T03:20:46.417Z,98526.09
2022-08-02T03:21:57.372Z,98532.84
2022-08-02T03:23:02.841Z,98526.72
2022-08-02T03:24:07.391Z,98525.72
2022-08-02T03:25:12.963Z,98528.38
2022-08-02T03:26:17.623Z,98526.72
2022-08-02T03:27:25.465Z,98532.66
2022-08-02T03:28:29.642Z,98533.28
2022-08-02T03:29:37.021Z,98527.81
2022-08-02T03:30:43.868Z,98531.28
2022-08-02T03:31:57.535Z,98530.25
2022-08-02T03:33:02.901Z,98539.66
2022-08-02T03:34:07.802Z,98533.38
2022-08-02T03:35:13.231Z,98536.66
2022-08-02T03:36:20.989Z,98538.13
2022-08-02T03:37:25.325Z,98542.41
2022-08-02T03:38:30.827Z,98539.38
2022-08-02T03:39:34.741Z,98543.50
2022-08-02T03:40:39.945Z,98548.59
2022-08-02T03:41:48.674Z,98546.75
2022-08-02T03:42:53.987Z,98554.53
2022-08-02T03:43:58.254Z,98551.50
2022-08-02T03:45:08.211Z,98548.69
2022-08-02T03:46:14.900Z,98561.72
2022-08-02T03:47:19.866Z,98553.59
2022-08-02T03:48:34.095Z,98556.03
2022-08-02T03:49:41.513Z,98560.34
2022-08-02T03:50:49.288Z,98563.00
2022-08-02T03:51:57.217Z,98563.81
2022-08-02T03:53:26.378Z,98560.97
2022-08-02T03:54:34.829Z,98557.69
2022-08-02T03:55:50.901Z,98567.28
2022-08-02T03:56:55.051Z,98563.00
2022-08-02T03:57:59.892Z,98573.56
2022-08-02T03:59:15.123Z,98563.63
2022-08-02T04:00:21.740Z,98572.38
2022-08-02T04:01:29.693Z,98564.22
2022-08-02T04:02:32.993Z,98571.19
2022-08-02T04:03:38.919Z,98562.84
2022-08-02T04:04:42.509Z,98568.81
2022-08-02T04:06:28.371Z,98570.03
2022-08-02T04:08:33.447Z,98574.16
2022-08-02T04:08:58.510Z,98577.25
2022-08-02T04:10:02.131Z,98570.75
2022-08-02T04:11:24.621Z,98568.72
2022-08-02T04:12:36.891Z,98574.47
2022-08-02T04:13:42.173Z,98573.91
2022-08-02T04:14:47.232Z,98577.00
2022-08-02T04:15:55.023Z,98570.34
2022-08-02T04:17:04.730Z,98571.56
2022-08-02T04:18:08.456Z,98576.50
2022-08-02T04:19:19.010Z,98572.47
2022-08-02T04:20:23.854Z,98579.00
2022-08-02T04:21:48.551Z,98576.00
2022-08-02T04:23:02.500Z,98573.59
2022-08-02T04:24:08.395Z,98583.16
2022-08-02T04:25:17.548Z,98580.38
2022-08-02T04:26:27.524Z,98584.81
2022-08-02T04:27:51.322Z,98586.50
2022-08-02T04:28:57.477Z,98592.75
2022-08-02T04:30:02.184Z,98593.44
2022-08-02T04:31:05.898Z,98592.41
2022-08-02T04:32:10.718Z,98594.69
2022-08-02T04:33:14.295Z,98597.34
2022-08-02T04:34:19.916Z,98594.69
2022-08-02T04:35:23.333Z,98595.69
2022-08-02T04:36:30.851Z,98590.38
2022-08-02T04:37:35.237Z,98597.34
2022-08-02T04:38:39.733Z,98602.44
2022-08-02T04:39:43.212Z,98603.25
2022-08-02T04:40:57.367Z,98597.34
2022-08-02T04:42:00.497Z,98602.81
2022-08-02T04:43:04.706Z,98607.50
2022-08-02T04:44:08.036Z,98602.38
2022-08-02T04:45:16.599Z,98604.34
2022-08-02T04:46:21.772Z,98598.44
2022-08-02T04:47:54.181Z,98604.75
2022-08-02T04:48:49.958Z,98596.16
2022-08-02T04:49:55.092Z,98605.75
2022-08-02T04:50:59.427Z,98603.09
2022-08-02T04:52:02.605Z,98609.41
2022-08-02T04:53:06.998Z,98607.56
2022-08-02T04:54:12.905Z,98603.94
2022-08-02T04:55:18.539Z,98610.88
2022-08-02T04:56:27.092Z,98608.22
2022-08-02T04:57:53.211Z,98603.75
2022-08-02T04:59:01.287Z,98605.38
2022-08-02T05:00:24.815Z,98601.72
2022-08-02T05:01:39.661Z,98605.19
2022-08-02T05:02:43.122Z,98607.00
2022-08-02T05:03:53.841Z,98601.91
2022-08-02T05:05:10.052Z,98605.38
2022-08-02T05:06:21.843Z,98602.53
2022-08-02T05:07:25.701Z,98611.28
2022-08-02T05:08:30.263Z,98605.47
2022-08-02T05:09:33.714Z,98604.06
2022-08-02T05:10:38.085Z,98606.78
2022-08-02T05:11:41.351Z,98609.31
2022-08-02T05:12:45.692Z,98617.28
2022-08-02T05:13:58.833Z,98610.41
2022-08-02T05:15:03.961Z,98615.78
2022-08-02T05:16:08.711Z,98613.78
2022-08-02T05:17:12.280Z,98610.78
2022-08-02T05:18:16.539Z,98612.66
2022-08-02T05:19:20.673Z,98615.75
2022-08-02T05:20:26.694Z,98617.22
2022-08-02T05:21:30.085Z,98621.28
2022-08-02T05:22:34.676Z,98618.44
2022-08-02T05:23:38.976Z,98615.78
2022-08-02T05:24:42.730Z,98620.72
2022-08-02T05:25:49.801Z,98623.97
2022-08-02T05:26:54.675Z,98625.81
2022-08-02T05:27:59.122Z,98630.31
2022-08-02T05:29:03.463Z,98628.69
2022-08-02T05:30:09.525Z,98628.06
2022-08-02T05:31:13.941Z,98628.22
2022-08-02T05:32:17.185Z,98622.09
2022-08-02T05:33:21.694Z,98629.88
2022-08-02T05:34:24.894Z,98628.69
2022-08-02T05:35:30.842Z,98629.94
2022-08-02T05:36:35.530Z,98627.88
2022-08-02T05:37:46.763Z,98629.19
2022-08-02T05:38:51.503Z,98628.59
2022-08-02T05:39:56.422Z,98632.50
2022-08-02T05:41:01.021Z,98630.47
2022-08-02T05:42:04.803Z,98628.84
2022-08-02T05:43:13.833Z,98638.50
2022-08-02T05:44:17.289Z,98633.41
2022-08-02T05:45:21.868Z,98632.63
2022-08-02T05:46:26.594Z,98628.16
2022-08-02T05:47:30.125Z,98634.50
2022-08-02T05:48:34.717Z,98631.88
2022-08-02T05:49:38.251Z,98633.53
2022-08-02T05:50:47.146Z,98636.78
2022-08-02T05:52:02.855Z,98638.41
2022-08-02T05:53:13.614Z,98645.56
2022-08-02T05:54:20.989Z,98642.47
2022-08-02T05:55:29.075Z,98637.38
2022-08-02T05:56:34.644Z,98641.88
2022-08-02T05:57:48.764Z,98639.22
2022-08-02T05:58:57.851Z,98643.34
2022-08-02T06:00:08.964Z,98646.81
2022-08-02T06:01:24.444Z,98649.47
2022-08-02T06:02:32.384Z,98654.75
2022-08-02T06:03:39.227Z,98647.78
2022-08-02T06:04:50.092Z,98654.34
2022-08-02T06:06:01.745Z,98657.19
2022-08-02T06:07:07.345Z,98655.75
2022-08-02T06:08:13.788Z,98657.19
2022-08-02T06:09:21.065Z,98655.53
2022-08-02T06:10:31.523Z,98659.84
2022-08-02T06:11:36.409Z,98654.13
2022-08-02T06:12:45.256Z,98658.84
2022-08-02T06:13:48.812Z,98656.63
2022-08-02T06:14:54.672Z,98662.38
2022-08-02T06:15:59.892Z,98665.84
2022-08-02T06:17:06.382Z,98659.72
2022-08-02T06:18:10.272Z,98659.72
2022-08-02T06:19:15.172Z,98665.84
2022-08-02T06:20:18.982Z,98666.44
2022-08-02T06:22:33.421Z,98672.59
2022-08-02T06:22:50.348Z,98672.81
2022-08-02T06:23:57.897Z,98673.50
2022-08-02T06:25:04.560Z,98682.94
2022-08-02T06:26:09.126Z,98671.31
2022-08-02T06:27:15.227Z,98676.63
2022-08-02T06:28:20.120Z,98680.56
2022-08-02T06:29:25.030Z,98682.78
2022-08-02T06:30:28.917Z,98682.84
2022-08-02T06:31:33.404Z,98689.78
2022-08-02T06:32:37.261Z,98688.16
2022-08-02T06:33:42.158Z,98690.19
2022-08-02T06:34:46.508Z,98685.88
2022-08-02T06:35:58.035Z,98691.81
2022-08-02T06:37:12.813Z,98696.94
2022-08-02T06:38:23.203Z,98685.88
2022-08-02T06:39:33.030Z,98697.34
2022-08-02T06:40:41.355Z,98690.81
2022-08-02T06:41:50.275Z,98689.34
2022-08-02T06:43:14.486Z,98693.03
2022-08-02T06:44:45.849Z,98687.91
2022-08-02T06:45:42.721Z,98693.03
2022-08-02T06:47:11.568Z,98701.63
2022-08-02T06:48:12.479Z,98698.34
2022-08-02T06:49:15.753Z,98695.91
2022-08-02T06:50:20.213Z,98694.28
2022-08-02T06:51:30.835Z,98698.19
2022-08-02T06:52:36.513Z,98703.72
2022-08-02T06:53:41.155Z,98704.13
2022-08-02T06:54:44.618Z,98701.03
2022-08-02T06:55:49.024Z,98697.97
2022-08-02T06:56:52.502Z,98704.72
2022-08-02T06:57:57.100Z,98701.03
2022-08-02T06:59:05.571Z,98701.03
2022-08-02T07:00:12.872Z,98711.88
2022-08-02T07:01:17.670Z,98706.56
2022-08-02T07:02:21.549Z,98705.75
2022-08-02T07:03:27.086Z,98707.59
2022-08-02T07:04:30.383Z,98707.38
2022-08-02T07:05:34.491Z,98699.41
2022-08-02T07:06:37.862Z,98695.72
2022-08-02T07:07:43.687Z,98700.00
2022-08-02T07:09:04.899Z,98706.56
2022-08-02T07:10:12.252Z,98703.28
2022-08-02T07:11:15.588Z,98699.59
2022-08-02T07:12:19.804Z,98700.81
2022-08-02T07:13:24.104Z,98701.41
2022-08-02T07:14:27.340Z,98705.28
2022-08-02T07:15:31.734Z,98700.13
2022-08-02T07:16:35.004Z,98707.25
2022-08-02T07:17:39.070Z,98699.25
2022-08-02T07:18:42.312Z,98703.59
2022-08-02T07:19:46.823Z,98704.81
2022-08-02T07:20:50.028Z,98709.94
2022-08-02T07:21:59.266Z,98706.88
2022-08-02T07:23:09.764Z,98707.50
2022-08-02T07:24:13.987Z,98703.84
2022-08-02T07:25:18.577Z,98703.84
2022-08-02T07:26:21.876Z,98705.50
2022-08-02T07:27:26.595Z,98707.13
2022-08-02T07:28:30.753Z,98708.53
2022-08-02T07:29:45.901Z,98707.31
2022-08-02T07:30:51.166Z,98704.03
2022-08-02T07:31:54.532Z,98705.22
2022-08-02T07:32:58.753Z,98703.91
2022-08-02T07:34:01.975Z,98706.06
2022-08-02T07:35:07.873Z,98705.75
2022-08-02T07:36:16.980Z,98704.16
2022-08-02T07:37:53.194Z,98700.47
2022-08-02T07:38:55.173Z,98691.31
2022-08-02T07:39:58.505Z,98699.03
2022-08-02T07:41:03.575Z,98701.06
2022-08-02T07:42:07.275Z,98695.47
2022-08-02T07:43:11.599Z,98699.19
2022-08-02T07:44:15.761Z,98703.56
2022-08-02T07:45:19.969Z,98697.84
2022-08-02T07:46:23.378Z,98698.25
2022-08-02T07:47:27.736Z,98700.19
2022-08-02T07:48:31.003Z,98701.47
2022-08-02T07:49:35.251Z,98704.03
2022-08-02T07:50:39.673Z,98701.41
2022-08-02T07:51:43.039Z,98710.81
2022-08-02T07:52:50.132Z,98707.91
2022-08-02T07:54:02.721Z,98703.53
2022-08-02T07:55:09.809Z,98708.66
2022-08-02T07:56:14.093Z,98702.66
2022-08-02T07:57:18.352Z,98705.31
2022-08-02T07:58:21.816Z,98708.53
2022-08-02T07:59:26.046Z,98710.47
2022-08-02T08:00:30.753Z,98703.00
2022-08-02T08:01:34.571Z,98707.28
2022-08-02T08:02:40.618Z,98708.69
2022-08-02T08:03:44.172Z,98708.69
2022-08-02T08:04:48.287Z,98711.81
2022-08-02T08:05:54.620Z,98712.69
2022-08-02T08:06:57.760Z,98712.31
2022-08-02T08:08:01.993Z,98713.56
2022-08-02T08:09:07.707Z,98706.00
2022-08-02T08:10:11.352Z,98711.13
2022-08-02T08:11:15.770Z,98712.09
2022-08-02T08:12:20.204Z,98719.09
2022-08-02T08:13:24.915Z,98719.69
2022-08-02T08:14:28.101Z,98717.94
2022-08-02T08:15:32.398Z,98721.25
2022-08-02T08:16:36.853Z,98723.75
2022-08-02T08:17:40.094Z,98721.66
2022-08-02T08:18:44.758Z,98721.31
2022-08-02T08:19:50.833Z,98717.69
2022-08-02T08:20:56.981Z,98723.09
2022-08-02T08:22:00.968Z,98727.88
2022-08-02T08:23:05.262Z,98723.84
2022-08-02T08:24:11.152Z,98725.19
2022-08-02T08:25:14.545Z,98723.06
2022-08-02T08:26:19.056Z,98727.81
2022-08-02T08:27:23.403Z,98725.94
2022-08-02T08:28:27.768Z,98721.50
2022-08-02T08:29:31.814Z,98732.84
2022-08-02T08:30:34.973Z,98733.66
2022-08-02T08:31:39.453Z,98728.03
2022-08-02T08:32:42.773Z,98734.13
2022-08-02T08:33:47.172Z,98728.59
2022-08-02T08:34:51.534Z,98721.84
2022-08-02T08:35:56.372Z,98727.66
2022-08-02T08:36:59.444Z,98725.09
2022-08-02T08:38:07.505Z,98727.34
2022-08-02T08:39:13.423Z,98722.31
2022-08-02T08:40:19.620Z,98729.84
2022-08-02T08:41:24.155Z,98732.72
2022-08-02T08:42:27.479Z,98726.19
2022-08-02T08:43:31.691Z,98722.97
2022-08-02T08:44:35.473Z,98726.03
2022-08-02T08:45:41.470Z,98730.81
2022-08-02T08:46:45.203Z,98731.28
2022-08-02T08:47:54.041Z,98737.13
2022-08-02T08:49:02.842Z,98732.06
2022-08-02T08:50:11.596Z,98733.56
2022-08-02T08:51:22.953Z,98742.63
2022-08-02T08:52:27.974Z,98735.53
2022-08-02T08:53:36.484Z,98734.50
2022-08-02T08:54:43.716Z,98744.63
2022-08-02T08:55:53.360Z,98732.16
2022-08-02T08:56:58.369Z,98739.75
2022-08-02T08:58:03.071Z,98736.59
2022-08-02T08:59:07.446Z,98734.28
2022-08-02T09:00:13.205Z,98736.03
2022-08-02T09:01:17.886Z,98741.72
2022-08-02T09:02:26.035Z,98734.41
2022-08-02T09:03:33.883Z,98733.91
2022-08-02T09:04:38.901Z,98741.03
2022-08-02T09:05:43.561Z,98732.50
2022-08-02T09:06:46.651Z,98739.03
2022-08-02T09:07:52.186Z,98746.00
2022-08-02T09:08:55.449Z,98748.22
2022-08-02T09:10:01.333Z,98742.25
2022-08-02T09:11:13.503Z,98745.25
2022-08-02T09:12:18.347Z,98741.34
2022-08-02T09:13:38.502Z,98736.00
2022-08-02T09:14:49.942Z,98731.81
2022-08-02T09:15:56.357Z,98736.72
2022-08-02T09:17:09.617Z,98732.75
2022-08-02T09:18:13.458Z,98737.94
2022-08-02T09:19:22.547Z,98736.75
2022-08-02T09:20:30.437Z,98741.34
2022-08-02T09:21:39.246Z,98739.13
2022-08-02T09:22:42.653Z,98748.09
2022-08-02T09:23:48.676Z,98744.81
2022-08-02T09:24:53.584Z,98738.53
2022-08-02T09:26:04.518Z,98744.38
2022-08-02T09:27:16.332Z,98745.06
2022-08-02T09:28:19.431Z,98745.50
2022-08-02T09:29:25.953Z,98752.22
2022-08-02T09:30:29.828Z,98745.88
2022-08-02T09:31:35.872Z,98752.69
2022-08-02T09:32:46.843Z,98752.50
2022-08-02T09:33:54.763Z,98752.75
2022-08-02T09:34:59.282Z,98747.69
2022-08-02T09:36:07.184Z,98752.53
2022-08-02T09:37:24.385Z,98754.72
2022-08-02T09:38:27.745Z,98760.47
2022-08-02T09:39:47.607Z,98757.72
2022-08-02T09:40:51.061Z,98758.22
2022-08-02T09:42:11.043Z,98758.22
2022-08-02T09:43:14.719Z,98757.94
2022-08-02T09:44:18.821Z,98754.25
2022-08-02T09:45:21.899Z,98759.13
2022-08-02T09:46:28.467Z,98748.69
2022-08-02T09:47:37.539Z,98753.44
2022-08-02T09:48:55.042Z,98752.66
2022-08-02T09:50:00.089Z,98749.16
2022-08-02T09:51:03.455Z,98753.56
2022-08-02T09:52:08.291Z,98750.59
2022-08-02T09:53:13.333Z,98750.44
2022-08-02T09:54:19.753Z,98754.00
2022-08-02T09:55:23.172Z,98755.69
2022-08-02T09:56:29.455Z,98756.06
2022-08-02T09:57:40.237Z,98752.72
2022-08-02T09:58:44.514Z,98760.31
2022-08-02T09:59:54.823Z,98764.31
2022-08-02T10:00:59.383Z,98758.09
2022-08-02T10:02:17.609Z,98762.44
2022-08-02T10:03:23.123Z,98757.53
2022-08-02T10:04:53.163Z,98750.53
2022-08-02T10:06:03.030Z,98751.59
2022-08-02T10:07:06.863Z,98750.28
2022-08-02T10:08:11.241Z,98753.22
2022-08-02T10:09:17.002Z,98754.94
2022-08-02T10:10:20.236Z,98747.72
2022-08-02T10:11:30.700Z,98761.63
2022-08-02T10:12:37.303Z,98749.78
2022-08-02T10:13:42.117Z,98757.03
2022-08-02T10:14:47.064Z,98755.31
2022-08-02T10:15:50.824Z,98749.72
2022-08-02T10:16:55.410Z,98754.63
2022-08-02T10:17:58.951Z,98751.03
2022-08-02T10:19:04.852Z,98753.59
2022-08-02T10:20:10.243Z,98751.16
2022-08-02T10:21:15.799Z,98751.16
2022-08-02T10:22:20.653Z,98748.81
2022-08-02T10:23:26.860Z,98743.91
2022-08-02T10:24:33.793Z,98740.94
2022-08-02T10:25:37.630Z,98743.97
2022-08-02T10:26:45.365Z,98743.00
2022-08-02T10:28:04.654Z,98740.06
2022-08-02T10:29:12.716Z,98735.22
2022-08-02T10:30:16.134Z,98743.09
2022-08-02T10:31:24.024Z,98748.13
2022-08-02T10:32:32.610Z,98734.16
2022-08-02T10:33:36.798Z,98745.56
2022-08-02T10:34:51.124Z,98745.06
2022-08-02T10:36:04.486Z,98748.91
2022-08-02T10:37:14.807Z,98738.47
2022-08-02T10:38:20.172Z,98743.28
2022-08-02T10:39:24.366Z,98746.13
2022-08-02T10:40:44.523Z,98741.31
2022-08-02T10:41:50.621Z,98736.38
2022-08-02T10:42:56.225Z,98744.00
2022-08-02T10:44:00.771Z,98745.03
2022-08-02T10:45:15.283Z,98740.88
2022-08-02T10:46:23.542Z,98737.94
2022-08-02T10:47:28.081Z,98742.19
2022-08-02T10:48:31.202Z,98737.06
2022-08-02T10:49:50.047Z,98746.59
2022-08-02T10:50:54.292Z,98738.22
2022-08-02T10:52:09.682Z,98737.00
2022-08-02T10:53:27.854Z,98745.41
2022-08-02T10:54:35.433Z,98742.75
2022-08-02T10:55:46.919Z,98741.81
2022-08-02T10:56:52.850Z,98740.50
2022-08-02T10:58:18.721Z,98739.69
2022-08-02T10:59:26.750Z,98746.25
2022-08-02T11:00:32.466Z,98743.25
2022-08-02T11:01:44.641Z,98737.63
2022-08-02T11:02:53.585Z,98743.19
2022-08-02T11:03:59.882Z,98736.59
2022-08-02T11:05:15.717Z,98738.25
2022-08-02T11:06:25.674Z,98737.13
2022-08-02T11:07:34.057Z,98736.94
2022-08-02T11:08:40.794Z,98728.50
2022-08-02T11:09:45.913Z,98741.81
2022-08-02T11:10:50.171Z,98743.22
2022-08-02T11:12:01.646Z,98738.59
2022-08-02T11:13:11.997Z,98737.78
2022-08-02T11:14:15.611Z,98739.22
2022-08-02T11:15:20.724Z,98733.97
2022-08-02T11:17:05.761Z,98737.78
2022-08-02T11:18:10.164Z,98727.19
2022-08-02T11:19:13.344Z,98735.19
2022-08-02T11:20:19.272Z,98734.19
2022-08-02T11:21:23.655Z,98732.22
2022-08-02T11:22:28.431Z,98744.88
2022-08-02T11:23:44.951Z,98735.50
2022-08-02T11:24:50.285Z,98735.88
2022-08-02T11:26:11.367Z,98729.94
2022-08-02T11:27:21.896Z,98736.75
2022-08-02T11:28:26.961Z,98731.72
2022-08-02T11:29:38.203Z,98740.44
2022-08-02T11:30:43.233Z,98732.50
2022-08-02T11:31:48.672Z,98738.31
2022-08-02T11:32:53.260Z,98735.97
2022-08-02T11:33:56.422Z,98735.69
2022-08-02T11:35:00.801Z,98725.94
2022-08-02T11:36:05.937Z,98727.31
2022-08-02T11:37:10.492Z,98730.59
2022-08-02T11:38:16.137Z,98725.22
2022-08-02T11:39:21.688Z,98725.63
2022-08-02T11:40:24.919Z,98721.56
2022-08-02T11:41:46.600Z,98720.91
2022-08-02T11:42:53.983Z,98726.16
2022-08-02T11:43:58.382Z,98734.84
2022-08-02T11:45:02.796Z,98731.38
2022-08-02T11:46:06.113Z,98736.31
2022-08-02T11:47:12.843Z,98740.09
2022-08-02T11:48:16.052Z,98723.38
2022-08-02T11:49:20.515Z,98730.03
2022-08-02T11:50:30.302Z,98723.75
2022-08-02T11:51:35.146Z,98735.59
2022-08-02T11:52:38.588Z,98731.03
2022-08-02T11:53:44.333Z,98725.16
2022-08-02T11:54:51.094Z,98728.69
2022-08-02T11:55:57.583Z,98731.13
2022-08-02T11:57:20.158Z,98734.38
2022-08-02T11:58:24.192Z,98722.22
2022-08-02T11:59:28.343Z,98723.81
2022-08-02T12:00:31.493Z,98724.09
2022-08-02T12:01:46.161Z,98721.13
2022-08-02T12:02:52.159Z,98721.06
2022-08-02T12:04:01.109Z,98712.59
2022-08-02T12:05:08.858Z,98715.53
2022-08-02T12:06:16.652Z,98719.56
2022-08-02T12:07:34.665Z,98714.31
2022-08-02T12:08:39.195Z,98720.25
2022-08-02T12:09:43.363Z,98720.69
2022-08-02T12:10:48.173Z,98724.41
2022-08-02T12:11:52.693Z,98718.19
2022-08-02T12:12:58.024Z,98726.06
2022-08-02T12:14:02.434Z,98727.44
2022-08-02T12:15:10.568Z,98716.34
2022-08-02T12:16:34.044Z,98719.28
2022-08-02T12:17:55.721Z,98714.31
2022-08-02T12:19:18.966Z,98708.75
2022-08-02T12:20:23.205Z,98712.44
2022-08-02T12:21:27.310Z,98710.88
2022-08-02T12:22:31.791Z,98705.34
2022-08-02T12:23:59.467Z,98700.03
2022-08-02T12:25:33.575Z,98702.94
2022-08-02T12:26:46.062Z,98715.56
2022-08-02T12:27:53.379Z,98706.94
2022-08-02T12:29:01.702Z,98703.34
2022-08-02T12:30:08.927Z,98702.63
2022-08-02T12:31:14.383Z,98697.41
2022-08-02T12:32:26.073Z,98702.19
2022-08-02T12:33:32.382Z,98710.72
2022-08-02T12:34:38.862Z,98701.53
2022-08-02T12:35:43.152Z,98705.25
2022-08-02T12:36:59.276Z,98703.22
2022-08-02T12:38:11.160Z,98697.63
2022-08-02T12:39:14.908Z,98699.75
2022-08-02T12:40:25.506Z,98699.19
2022-08-02T12:41:32.483Z,98698.81
2022-08-02T12:42:48.043Z,98697.66
2022-08-02T12:43:53.072Z,98710.75
2022-08-02T12:44:58.955Z,98706.56
2022-08-02T12:46:03.091Z,98711.53
2022-08-02T12:47:09.666Z,98708.34
2022-08-02T12:48:14.274Z,98708.13
2022-08-02T12:49:19.017Z,98714.38
2022-08-02T12:50:27.563Z,98715.47
2022-08-02T12:51:56.591Z,98719.22
2022-08-02T12:53:09.465Z,98713.44
2022-08-02T12:54:17.993Z,98713.69
2022-08-02T12:55:24.391Z,98710.91
2022-08-02T12:56:29.070Z,98703.34
2022-08-02T12:57:33.481Z,98714.22
2022-08-02T12:58:49.130Z,98706.09
2022-08-02T12:59:54.955Z,98705.22
2022-08-02T13:01:00.966Z,98700.97
2022-08-02T13:02:06.564Z,98705.84
2022-08-02T13:04:11.520Z,98705.50
2022-08-02T13:04:36.405Z,98703.13
2022-08-02T13:05:56.056Z,98699.38
2022-08-02T13:07:02.948Z,98696.75
2022-08-02T13:08:06.876Z,98696.72
2022-08-02T13:09:16.030Z,98702.38
2022-08-02T13:10:21.092Z,98701.06
2022-08-02T13:11:24.392Z,98700.16
2022-08-02T13:12:28.531Z,98701.44
2022-08-02T13:13:32.620Z,98703.03
2022-08-02T13:14:41.918Z,98702.53
2022-08-02T13:15:50.776Z,98703.13
2022-08-02T13:16:55.463Z,98701.78
2022-08-02T13:17:59.417Z,98702.44
2022-08-02T13:19:03.520Z,98695.09
2022-08-02T13:20:11.315Z,98702.50
2022-08-02T13:21:39.973Z,98703.81
2022-08-02T13:22:42.757Z,98695.47
2022-08-02T13:23:56.540Z,98702.81
2022-08-02T13:25:04.891Z,98702.00